sensor_id;sensor_type;location;lat;lon;timestamp;temperature;humidity
78649;DHT22;67962;47.310;9.642;2023-12-20T00:01:01;6.00;74.00
78649;DHT22;67962;47.310;9.642;2023-12-20T00:03:27;5.80;74.20
78649;DHT22;67962;47.310;9.642;2023-12-20T00:05:52;5.80;74.50
78649;DHT22;67962;47.310;9.642;2023-12-20T00:08:18;5.80;74.60
78649;DHT22;67962;47.310;9.642;2023-12-20T00:10:44;5.90;76.80
78649;DHT22;67962;47.310;9.642;2023-12-20T00:13:10;6.10;75.90
78649;DHT22;67962;47.310;9.642;2023-12-20T00:15:36;6.00;74.80
78649;DHT22;67962;47.310;9.642;2023-12-20T00:18:01;6.00;74.50
78649;DHT22;67962;47.310;9.642;2023-12-20T00:20:28;5.90;74.60
78649;DHT22;67962;47.310;9.642;2023-12-20T00:22:56;5.90;74.90
78649;DHT22;67962;47.310;9.642;2023-12-20T00:25:25;5.90;75.00
78649;DHT22;67962;47.310;9.642;2023-12-20T00:27:52;5.90;75.00
78649;DHT22;67962;47.310;9.642;2023-12-20T00:30:18;5.90;75.00
78649;DHT22;67962;47.310;9.642;2023-12-20T00:32:44;6.00;74.60
78649;DHT22;67962;47.310;9.642;2023-12-20T00:35:14;6.00;74.70
78649;DHT22;67962;47.310;9.642;2023-12-20T00:37:40;6.00;74.90
78649;DHT22;67962;47.310;9.642;2023-12-20T00:40:06;6.10;74.90
78649;DHT22;67962;47.310;9.642;2023-12-20T00:42:33;6.10;74.80
78649;DHT22;67962;47.310;9.642;2023-12-20T00:44:59;6.10;74.30
78649;DHT22;67962;47.310;9.642;2023-12-20T00:47:25;6.00;74.90
78649;DHT22;67962;47.310;9.642;2023-12-20T00:49:51;5.90;74.90
78649;DHT22;67962;47.310;9.642;2023-12-20T00:52:18;5.90;75.20
78649;DHT22;67962;47.310;9.642;2023-12-20T00:54:44;5.90;75.10
78649;DHT22;67962;47.310;9.642;2023-12-20T00:57:10;5.90;74.70
78649;DHT22;67962;47.310;9.642;2023-12-20T00:59:36;5.90;74.90
78649;DHT22;67962;47.310;9.642;2023-12-20T01:02:02;5.90;74.80
78649;DHT22;67962;47.310;9.642;2023-12-20T01:04:28;5.90;74.60
78649;DHT22;67962;47.310;9.642;2023-12-20T01:06:53;5.80;74.90
78649;DHT22;67962;47.310;9.642;2023-12-20T01:09:19;5.90;74.90
78649;DHT22;67962;47.310;9.642;2023-12-20T01:11:45;5.80;75.00
78649;DHT22;67962;47.310;9.642;2023-12-20T01:14:13;5.80;75.00
78649;DHT22;67962;47.310;9.642;2023-12-20T01:16:39;5.80;75.10
78649;DHT22;67962;47.310;9.642;2023-12-20T01:19:04;5.90;75.00
78649;DHT22;67962;47.310;9.642;2023-12-20T01:21:30;5.80;75.40
78649;DHT22;67962;47.310;9.642;2023-12-20T01:23:56;5.80;75.50
78649;DHT22;67962;47.310;9.642;2023-12-20T01:26:21;5.80;75.20
78649;DHT22;67962;47.310;9.642;2023-12-20T01:28:47;5.80;75.50
78649;DHT22;67962;47.310;9.642;2023-12-20T01:31:13;5.80;75.40
78649;DHT22;67962;47.310;9.642;2023-12-20T01:33:38;5.90;76.30
78649;DHT22;67962;47.310;9.642;2023-12-20T01:36:04;5.90;75.40
78649;DHT22;67962;47.310;9.642;2023-12-20T01:38:30;5.90;75.40
78649;DHT22;67962;47.310;9.642;2023-12-20T01:40:55;6.00;75.30
78649;DHT22;67962;47.310;9.642;2023-12-20T01:43:21;5.90;75.10
78649;DHT22;67962;47.310;9.642;2023-12-20T01:45:47;5.90;75.40
78649;DHT22;67962;47.310;9.642;2023-12-20T01:48:14;5.80;75.60
78649;DHT22;67962;47.310;9.642;2023-12-20T01:50:41;5.80;75.80
78649;DHT22;67962;47.310;9.642;2023-12-20T01:53:10;5.70;76.20
78649;DHT22;67962;47.310;9.642;2023-12-20T01:55:39;5.70;76.30
78649;DHT22;67962;47.310;9.642;2023-12-20T01:58:08;5.70;76.40
78649;DHT22;67962;47.310;9.642;2023-12-20T02:00:35;5.80;76.30
78649;DHT22;67962;47.310;9.642;2023-12-20T02:03:02;5.80;76.00
78649;DHT22;67962;47.310;9.642;2023-12-20T02:05:32;5.80;75.60
78649;DHT22;67962;47.310;9.642;2023-12-20T02:07:58;5.80;75.60
78649;DHT22;67962;47.310;9.642;2023-12-20T02:10:24;5.90;75.70
78649;DHT22;67962;47.310;9.642;2023-12-20T02:12:50;5.90;76.50
78649;DHT22;67962;47.310;9.642;2023-12-20T02:15:16;5.90;75.60
78649;DHT22;67962;47.310;9.642;2023-12-20T02:17:42;5.90;75.30
78649;DHT22;67962;47.310;9.642;2023-12-20T02:20:09;5.80;75.40
78649;DHT22;67962;47.310;9.642;2023-12-20T02:22:35;5.70;75.70
78649;DHT22;67962;47.310;9.642;2023-12-20T02:25:01;5.60;76.00
78649;DHT22;67962;47.310;9.642;2023-12-20T02:27:27;5.60;76.20
78649;DHT22;67962;47.310;9.642;2023-12-20T02:29:54;5.60;76.20
78649;DHT22;67962;47.310;9.642;2023-12-20T02:32:21;5.60;76.40
78649;DHT22;67962;47.310;9.642;2023-12-20T02:34:48;5.60;76.10
78649;DHT22;67962;47.310;9.642;2023-12-20T02:37:14;5.60;76.00
78649;DHT22;67962;47.310;9.642;2023-12-20T02:39:40;5.60;76.40
78649;DHT22;67962;47.310;9.642;2023-12-20T02:42:05;5.70;76.10
78649;DHT22;67962;47.310;9.642;2023-12-20T02:44:31;5.60;75.90
78649;DHT22;67962;47.310;9.642;2023-12-20T02:46:56;5.60;76.00
78649;DHT22;67962;47.310;9.642;2023-12-20T02:49:22;5.60;76.40
78649;DHT22;67962;47.310;9.642;2023-12-20T02:51:48;5.70;76.30
78649;DHT22;67962;47.310;9.642;2023-12-20T02:54:13;5.80;76.10
78649;DHT22;67962;47.310;9.642;2023-12-20T02:56:39;5.80;75.60
78649;DHT22;67962;47.310;9.642;2023-12-20T02:59:05;5.80;75.40
78649;DHT22;67962;47.310;9.642;2023-12-20T03:01:31;5.80;75.60
78649;DHT22;67962;47.310;9.642;2023-12-20T03:03:57;5.80;75.40
78649;DHT22;67962;47.310;9.642;2023-12-20T03:06:23;5.80;75.60
78649;DHT22;67962;47.310;9.642;2023-12-20T03:08:49;5.80;76.00
78649;DHT22;67962;47.310;9.642;2023-12-20T03:11:15;5.80;75.80
78649;DHT22;67962;47.310;9.642;2023-12-20T03:13:41;5.80;75.80
78649;DHT22;67962;47.310;9.642;2023-12-20T03:16:10;5.80;75.60
78649;DHT22;67962;47.310;9.642;2023-12-20T03:18:36;5.70;75.60
78649;DHT22;67962;47.310;9.642;2023-12-20T03:21:02;5.80;76.00
78649;DHT22;67962;47.310;9.642;2023-12-20T03:23:29;5.80;76.00
78649;DHT22;67962;47.310;9.642;2023-12-20T03:25:56;5.90;75.80
78649;DHT22;67962;47.310;9.642;2023-12-20T03:28:22;5.80;75.70
78649;DHT22;67962;47.310;9.642;2023-12-20T03:30:48;5.90;75.80
78649;DHT22;67962;47.310;9.642;2023-12-20T03:33:14;5.90;75.40
78649;DHT22;67962;47.310;9.642;2023-12-20T03:35:40;5.90;75.60
78649;DHT22;67962;47.310;9.642;2023-12-20T03:38:06;5.90;75.70
78649;DHT22;67962;47.310;9.642;2023-12-20T03:40:31;6.00;75.30
78649;DHT22;67962;47.310;9.642;2023-12-20T03:42:57;6.00;75.30
78649;DHT22;67962;47.310;9.642;2023-12-20T03:45:22;6.00;75.30
78649;DHT22;67962;47.310;9.642;2023-12-20T03:47:48;5.90;75.30
78649;DHT22;67962;47.310;9.642;2023-12-20T03:50:15;6.00;75.50
78649;DHT22;67962;47.310;9.642;2023-12-20T03:52:40;5.90;75.30
78649;DHT22;67962;47.310;9.642;2023-12-20T03:55:06;6.00;75.30
78649;DHT22;67962;47.310;9.642;2023-12-20T03:57:32;6.00;75.20
78649;DHT22;67962;47.310;9.642;2023-12-20T03:59:57;6.00;75.50
78649;DHT22;67962;47.310;9.642;2023-12-20T04:02:23;6.00;75.60
78649;DHT22;67962;47.310;9.642;2023-12-20T04:04:49;5.90;75.60
78649;DHT22;67962;47.310;9.642;2023-12-20T04:07:14;6.00;75.80
78649;DHT22;67962;47.310;9.642;2023-12-20T04:09:41;6.00;75.70
78649;DHT22;67962;47.310;9.642;2023-12-20T04:12:07;6.00;75.70
78649;DHT22;67962;47.310;9.642;2023-12-20T04:14:32;6.00;75.70
78649;DHT22;67962;47.310;9.642;2023-12-20T04:16:58;5.90;76.00
78649;DHT22;67962;47.310;9.642;2023-12-20T04:19:24;5.90;76.10
78649;DHT22;67962;47.310;9.642;2023-12-20T04:21:50;5.90;76.00
78649;DHT22;67962;47.310;9.642;2023-12-20T04:24:15;5.90;76.00
78649;DHT22;67962;47.310;9.642;2023-12-20T04:26:41;5.90;76.10
78649;DHT22;67962;47.310;9.642;2023-12-20T04:29:07;5.80;76.30
78649;DHT22;67962;47.310;9.642;2023-12-20T04:31:32;5.80;76.30
78649;DHT22;67962;47.310;9.642;2023-12-20T04:33:58;5.70;76.40
78649;DHT22;67962;47.310;9.642;2023-12-20T04:36:24;5.80;76.30
78649;DHT22;67962;47.310;9.642;2023-12-20T04:38:53;5.80;76.20
78649;DHT22;67962;47.310;9.642;2023-12-20T04:41:18;5.90;76.20
78649;DHT22;67962;47.310;9.642;2023-12-20T04:43:44;5.80;76.30
78649;DHT22;67962;47.310;9.642;2023-12-20T04:46:10;5.80;76.80
78649;DHT22;67962;47.310;9.642;2023-12-20T04:48:36;5.80;77.00
78649;DHT22;67962;47.310;9.642;2023-12-20T04:51:02;5.90;76.80
78649;DHT22;67962;47.310;9.642;2023-12-20T04:53:27;5.80;76.80
78649;DHT22;67962;47.310;9.642;2023-12-20T04:55:53;5.70;76.80
78649;DHT22;67962;47.310;9.642;2023-12-20T04:58:19;5.80;76.90
78649;DHT22;67962;47.310;9.642;2023-12-20T05:00:44;5.80;77.00
78649;DHT22;67962;47.310;9.642;2023-12-20T05:03:10;5.90;76.60
78649;DHT22;67962;47.310;9.642;2023-12-20T05:05:36;5.90;76.00
78649;DHT22;67962;47.310;9.642;2023-12-20T05:08:01;6.00;75.80
78649;DHT22;67962;47.310;9.642;2023-12-20T05:10:27;6.10;75.60
78649;DHT22;67962;47.310;9.642;2023-12-20T05:12:53;6.20;75.00
78649;DHT22;67962;47.310;9.642;2023-12-20T05:15:19;6.20;73.50
78649;DHT22;67962;47.310;9.642;2023-12-20T05:17:44;6.30;73.90
78649;DHT22;67962;47.310;9.642;2023-12-20T05:20:10;6.30;73.80
78649;DHT22;67962;47.310;9.642;2023-12-20T05:22:36;6.40;73.50
78649;DHT22;67962;47.310;9.642;2023-12-20T05:25:01;6.60;73.40
78649;DHT22;67962;47.310;9.642;2023-12-20T05:27:27;6.60;74.00
78649;DHT22;67962;47.310;9.642;2023-12-20T05:29:53;6.60;75.00
78649;DHT22;67962;47.310;9.642;2023-12-20T05:32:23;6.70;75.90
78649;DHT22;67962;47.310;9.642;2023-12-20T05:34:48;6.70;77.00
78649;DHT22;67962;47.310;9.642;2023-12-20T05:37:14;6.70;77.60
78649;DHT22;67962;47.310;9.642;2023-12-20T05:39:40;6.70;77.60
78649;DHT22;67962;47.310;9.642;2023-12-20T05:42:05;6.80;78.60
78649;DHT22;67962;47.310;9.642;2023-12-20T05:44:31;6.90;78.60
78649;DHT22;67962;47.310;9.642;2023-12-20T05:46:57;7.10;79.60
78649;DHT22;67962;47.310;9.642;2023-12-20T05:49:22;7.10;78.50
78649;DHT22;67962;47.310;9.642;2023-12-20T05:51:48;7.20;78.10
78649;DHT22;67962;47.310;9.642;2023-12-20T05:54:15;7.30;77.80
78649;DHT22;67962;47.310;9.642;2023-12-20T05:56:41;7.40;78.00
78649;DHT22;67962;47.310;9.642;2023-12-20T05:59:07;7.40;77.70
78649;DHT22;67962;47.310;9.642;2023-12-20T06:01:32;7.50;77.40
78649;DHT22;67962;47.310;9.642;2023-12-20T06:03:58;7.50;77.50
78649;DHT22;67962;47.310;9.642;2023-12-20T06:06:24;7.60;78.10
78649;DHT22;67962;47.310;9.642;2023-12-20T06:08:49;7.50;78.50
78649;DHT22;67962;47.310;9.642;2023-12-20T06:11:15;7.50;79.20
78649;DHT22;67962;47.310;9.642;2023-12-20T06:13:41;7.40;79.00
78649;DHT22;67962;47.310;9.642;2023-12-20T06:16:06;7.40;79.30
78649;DHT22;67962;47.310;9.642;2023-12-20T06:18:35;7.50;79.00
78649;DHT22;67962;47.310;9.642;2023-12-20T06:21:02;7.50;78.90
78649;DHT22;67962;47.310;9.642;2023-12-20T06:23:28;7.40;78.80
78649;DHT22;67962;47.310;9.642;2023-12-20T06:25:54;7.50;79.10
78649;DHT22;67962;47.310;9.642;2023-12-20T06:28:19;7.50;78.80
78649;DHT22;67962;47.310;9.642;2023-12-20T06:30:45;7.50;78.90
78649;DHT22;67962;47.310;9.642;2023-12-20T06:33:12;7.50;78.60
78649;DHT22;67962;47.310;9.642;2023-12-20T06:35:39;7.50;78.40
78649;DHT22;67962;47.310;9.642;2023-12-20T06:38:04;7.50;79.10
78649;DHT22;67962;47.310;9.642;2023-12-20T06:40:30;7.50;79.30
78649;DHT22;67962;47.310;9.642;2023-12-20T06:42:56;7.40;79.50
78649;DHT22;67962;47.310;9.642;2023-12-20T06:45:21;7.40;79.60
78649;DHT22;67962;47.310;9.642;2023-12-20T06:47:47;7.40;80.10
78649;DHT22;67962;47.310;9.642;2023-12-20T06:50:12;7.30;80.20
78649;DHT22;67962;47.310;9.642;2023-12-20T06:52:38;7.30;80.30
78649;DHT22;67962;47.310;9.642;2023-12-20T06:55:04;7.30;80.20
78649;DHT22;67962;47.310;9.642;2023-12-20T06:57:30;7.30;80.30
78649;DHT22;67962;47.310;9.642;2023-12-20T06:59:56;7.40;79.90
78649;DHT22;67962;47.310;9.642;2023-12-20T07:02:21;7.50;80.00
78649;DHT22;67962;47.310;9.642;2023-12-20T07:04:48;7.40;79.90
78649;DHT22;67962;47.310;9.642;2023-12-20T07:07:13;7.50;80.20
78649;DHT22;67962;47.310;9.642;2023-12-20T07:09:39;7.40;80.20
78649;DHT22;67962;47.310;9.642;2023-12-20T07:12:06;7.50;80.20
78649;DHT22;67962;47.310;9.642;2023-12-20T07:14:32;7.70;80.90
78649;DHT22;67962;47.310;9.642;2023-12-20T07:16:57;7.60;80.30
78649;DHT22;67962;47.310;9.642;2023-12-20T07:19:23;7.50;80.10
78649;DHT22;67962;47.310;9.642;2023-12-20T07:21:49;7.30;79.90
78649;DHT22;67962;47.310;9.642;2023-12-20T07:24:15;7.20;79.80
78649;DHT22;67962;47.310;9.642;2023-12-20T07:26:40;7.10;79.80
78649;DHT22;67962;47.310;9.642;2023-12-20T07:29:06;7.10;79.90
78649;DHT22;67962;47.310;9.642;2023-12-20T07:31:32;7.20;79.60
78649;DHT22;67962;47.310;9.642;2023-12-20T07:33:58;7.10;78.90
78649;DHT22;67962;47.310;9.642;2023-12-20T07:36:23;7.00;79.30
78649;DHT22;67962;47.310;9.642;2023-12-20T07:38:49;6.90;79.40
78649;DHT22;67962;47.310;9.642;2023-12-20T07:41:15;6.80;79.50
78649;DHT22;67962;47.310;9.642;2023-12-20T07:43:46;6.80;79.50
78649;DHT22;67962;47.310;9.642;2023-12-20T07:46:12;6.80;79.60
78649;DHT22;67962;47.310;9.642;2023-12-20T07:48:38;6.70;79.90
78649;DHT22;67962;47.310;9.642;2023-12-20T07:51:04;6.70;80.20
78649;DHT22;67962;47.310;9.642;2023-12-20T07:53:33;6.70;80.20
78649;DHT22;67962;47.310;9.642;2023-12-20T07:55:58;6.70;80.30
78649;DHT22;67962;47.310;9.642;2023-12-20T07:58:24;6.80;80.40
78649;DHT22;67962;47.310;9.642;2023-12-20T08:00:50;6.80;80.30
78649;DHT22;67962;47.310;9.642;2023-12-20T08:03:15;6.80;80.20
78649;DHT22;67962;47.310;9.642;2023-12-20T08:05:41;6.80;80.30
78649;DHT22;67962;47.310;9.642;2023-12-20T08:08:07;6.80;80.50
78649;DHT22;67962;47.310;9.642;2023-12-20T08:10:33;6.80;80.40
78649;DHT22;67962;47.310;9.642;2023-12-20T08:12:58;6.80;80.30
78649;DHT22;67962;47.310;9.642;2023-12-20T08:15:24;6.80;80.50
78649;DHT22;67962;47.310;9.642;2023-12-20T08:17:50;6.90;80.60
78649;DHT22;67962;47.310;9.642;2023-12-20T08:20:18;6.90;80.30
78649;DHT22;67962;47.310;9.642;2023-12-20T08:22:44;6.80;80.30
78649;DHT22;67962;47.310;9.642;2023-12-20T08:25:10;6.80;80.50
78649;DHT22;67962;47.310;9.642;2023-12-20T08:27:42;6.80;80.50
78649;DHT22;67962;47.310;9.642;2023-12-20T08:30:10;6.80;80.50
78649;DHT22;67962;47.310;9.642;2023-12-20T08:32:36;6.80;80.80
78649;DHT22;67962;47.310;9.642;2023-12-20T08:35:02;6.80;80.70
78649;DHT22;67962;47.310;9.642;2023-12-20T08:37:28;6.80;80.60
78649;DHT22;67962;47.310;9.642;2023-12-20T08:39:55;6.80;80.90
78649;DHT22;67962;47.310;9.642;2023-12-20T08:42:21;6.80;81.60
78649;DHT22;67962;47.310;9.642;2023-12-20T08:44:46;7.20;81.10
78649;DHT22;67962;47.310;9.642;2023-12-20T08:47:12;7.20;80.70
78649;DHT22;67962;47.310;9.642;2023-12-20T08:49:41;7.10;79.80
78649;DHT22;67962;47.310;9.642;2023-12-20T08:52:06;7.00;80.10
78649;DHT22;67962;47.310;9.642;2023-12-20T08:54:32;6.90;81.00
78649;DHT22;67962;47.310;9.642;2023-12-20T08:56:58;6.90;80.30
78649;DHT22;67962;47.310;9.642;2023-12-20T08:59:23;6.80;80.60
78649;DHT22;67962;47.310;9.642;2023-12-20T09:01:49;6.80;80.90
78649;DHT22;67962;47.310;9.642;2023-12-20T09:04:20;6.80;81.10
78649;DHT22;67962;47.310;9.642;2023-12-20T09:06:45;6.80;81.20
78649;DHT22;67962;47.310;9.642;2023-12-20T09:09:11;6.80;81.30
78649;DHT22;67962;47.310;9.642;2023-12-20T09:11:39;6.90;81.10
78649;DHT22;67962;47.310;9.642;2023-12-20T09:14:04;6.90;81.40
78649;DHT22;67962;47.310;9.642;2023-12-20T09:16:30;6.90;80.30
78649;DHT22;67962;47.310;9.642;2023-12-20T09:18:57;6.90;80.50
78649;DHT22;67962;47.310;9.642;2023-12-20T09:21:22;6.90;80.60
78649;DHT22;67962;47.310;9.642;2023-12-20T09:23:48;6.90;80.80
78649;DHT22;67962;47.310;9.642;2023-12-20T09:26:14;7.00;80.60
78649;DHT22;67962;47.310;9.642;2023-12-20T09:28:39;7.00;80.80
78649;DHT22;67962;47.310;9.642;2023-12-20T09:31:06;7.00;81.10
78649;DHT22;67962;47.310;9.642;2023-12-20T09:33:34;7.10;80.90
78649;DHT22;67962;47.310;9.642;2023-12-20T09:36:00;7.10;80.70
78649;DHT22;67962;47.310;9.642;2023-12-20T09:38:26;7.10;80.90
78649;DHT22;67962;47.310;9.642;2023-12-20T09:40:52;7.50;84.30
78649;DHT22;67962;47.310;9.642;2023-12-20T09:43:20;7.90;82.50
78649;DHT22;67962;47.310;9.642;2023-12-20T09:45:53;8.00;80.40
78649;DHT22;67962;47.310;9.642;2023-12-20T09:48:19;7.90;80.50
78649;DHT22;67962;47.310;9.642;2023-12-20T09:50:46;7.90;80.90
78649;DHT22;67962;47.310;9.642;2023-12-20T09:53:15;7.90;80.50
78649;DHT22;67962;47.310;9.642;2023-12-20T09:55:41;7.90;80.80
78649;DHT22;67962;47.310;9.642;2023-12-20T09:58:07;7.80;80.90
78649;DHT22;67962;47.310;9.642;2023-12-20T10:00:35;7.80;80.90
78649;DHT22;67962;47.310;9.642;2023-12-20T10:03:01;7.80;80.90
78649;DHT22;67962;47.310;9.642;2023-12-20T10:05:31;7.80;81.00
78649;DHT22;67962;47.310;9.642;2023-12-20T10:07:58;7.80;80.80
78649;DHT22;67962;47.310;9.642;2023-12-20T10:10:24;7.80;80.60
78649;DHT22;67962;47.310;9.642;2023-12-20T10:13:07;7.80;80.60
78649;DHT22;67962;47.310;9.642;2023-12-20T10:15:34;7.90;80.10
78649;DHT22;67962;47.310;9.642;2023-12-20T10:18:01;8.00;80.00
78649;DHT22;67962;47.310;9.642;2023-12-20T10:20:27;8.10;79.80
78649;DHT22;67962;47.310;9.642;2023-12-20T10:22:55;8.00;79.70
78649;DHT22;67962;47.310;9.642;2023-12-20T10:25:21;8.00;80.00
78649;DHT22;67962;47.310;9.642;2023-12-20T10:27:47;8.00;79.70
78649;DHT22;67962;47.310;9.642;2023-12-20T10:30:13;8.10;79.40
78649;DHT22;67962;47.310;9.642;2023-12-20T10:32:39;8.10;79.40
78649;DHT22;67962;47.310;9.642;2023-12-20T10:35:06;8.10;79.40
78649;DHT22;67962;47.310;9.642;2023-12-20T10:37:39;8.10;79.30
78649;DHT22;67962;47.310;9.642;2023-12-20T10:40:05;8.10;79.60
78649;DHT22;67962;47.310;9.642;2023-12-20T10:42:32;8.10;79.90
78649;DHT22;67962;47.310;9.642;2023-12-20T10:44:59;8.10;79.50
78649;DHT22;67962;47.310;9.642;2023-12-20T10:47:26;8.10;79.10
78649;DHT22;67962;47.310;9.642;2023-12-20T10:49:54;8.00;79.50
78649;DHT22;67962;47.310;9.642;2023-12-20T10:52:23;8.00;79.60
78649;DHT22;67962;47.310;9.642;2023-12-20T10:54:50;8.00;79.40
78649;DHT22;67962;47.310;9.642;2023-12-20T10:57:18;8.00;79.50
78649;DHT22;67962;47.310;9.642;2023-12-20T10:59:45;8.10;79.90
78649;DHT22;67962;47.310;9.642;2023-12-20T11:02:14;8.10;79.90
78649;DHT22;67962;47.310;9.642;2023-12-20T11:05:10;8.10;80.00
78649;DHT22;67962;47.310;9.642;2023-12-20T11:08:01;8.20;80.00
78649;DHT22;67962;47.310;9.642;2023-12-20T11:10:34;8.20;80.00
78649;DHT22;67962;47.310;9.642;2023-12-20T11:15:30;8.20;79.80
78649;DHT22;67962;47.310;9.642;2023-12-20T11:17:57;8.20;79.60
78649;DHT22;67962;47.310;9.642;2023-12-20T11:20:23;8.20;79.70
78649;DHT22;67962;47.310;9.642;2023-12-20T11:22:53;8.30;79.60
78649;DHT22;67962;47.310;9.642;2023-12-20T11:25:19;8.30;79.30
78649;DHT22;67962;47.310;9.642;2023-12-20T11:28:11;8.30;78.90
78649;DHT22;67962;47.310;9.642;2023-12-20T11:30:42;8.30;78.70
78649;DHT22;67962;47.310;9.642;2023-12-20T11:33:08;8.40;78.80
78649;DHT22;67962;47.310;9.642;2023-12-20T11:35:34;8.50;78.60
78649;DHT22;67962;47.310;9.642;2023-12-20T11:38:02;8.50;78.30
78649;DHT22;67962;47.310;9.642;2023-12-20T11:40:28;8.50;78.30
78649;DHT22;67962;47.310;9.642;2023-12-20T11:42:53;8.60;78.30
78649;DHT22;67962;47.310;9.642;2023-12-20T11:45:23;8.60;78.20
78649;DHT22;67962;47.310;9.642;2023-12-20T11:47:51;8.60;78.60
78649;DHT22;67962;47.310;9.642;2023-12-20T11:50:20;8.70;78.90
78649;DHT22;67962;47.310;9.642;2023-12-20T11:52:47;8.90;80.90
78649;DHT22;67962;47.310;9.642;2023-12-20T11:55:13;9.30;78.60
78649;DHT22;67962;47.310;9.642;2023-12-20T11:57:39;9.30;77.40
78649;DHT22;67962;47.310;9.642;2023-12-20T12:00:05;9.40;77.20
78649;DHT22;67962;47.310;9.642;2023-12-20T12:02:32;9.40;76.30
78649;DHT22;67962;47.310;9.642;2023-12-20T12:04:59;9.30;76.70
78649;DHT22;67962;47.310;9.642;2023-12-20T12:07:25;9.30;76.60
78649;DHT22;67962;47.310;9.642;2023-12-20T12:09:51;9.20;76.90
78649;DHT22;67962;47.310;9.642;2023-12-20T12:12:17;9.20;77.00
78649;DHT22;67962;47.310;9.642;2023-12-20T12:14:46;9.30;77.00
78649;DHT22;67962;47.310;9.642;2023-12-20T12:17:15;9.30;77.10
78649;DHT22;67962;47.310;9.642;2023-12-20T12:19:42;9.40;77.10
78649;DHT22;67962;47.310;9.642;2023-12-20T12:22:09;9.50;77.10
78649;DHT22;67962;47.310;9.642;2023-12-20T12:24:44;9.50;76.80
78649;DHT22;67962;47.310;9.642;2023-12-20T12:27:11;9.50;76.80
78649;DHT22;67962;47.310;9.642;2023-12-20T12:29:37;9.50;76.80
78649;DHT22;67962;47.310;9.642;2023-12-20T12:32:09;9.60;76.90
78649;DHT22;67962;47.310;9.642;2023-12-20T12:34:38;9.60;76.70
78649;DHT22;67962;47.310;9.642;2023-12-20T12:37:05;9.60;76.50
78649;DHT22;67962;47.310;9.642;2023-12-20T12:39:30;9.60;77.00
78649;DHT22;67962;47.310;9.642;2023-12-20T12:41:56;9.60;76.90
78649;DHT22;67962;47.310;9.642;2023-12-20T12:44:25;9.50;77.50
78649;DHT22;67962;47.310;9.642;2023-12-20T12:46:51;9.40;77.60
78649;DHT22;67962;47.310;9.642;2023-12-20T12:49:19;9.30;78.00
78649;DHT22;67962;47.310;9.642;2023-12-20T12:51:45;9.30;77.40
78649;DHT22;67962;47.310;9.642;2023-12-20T12:54:10;9.30;77.70
78649;DHT22;67962;47.310;9.642;2023-12-20T12:56:38;9.30;77.50
78649;DHT22;67962;47.310;9.642;2023-12-20T12:59:04;9.40;77.50
78649;DHT22;67962;47.310;9.642;2023-12-20T13:01:31;9.40;77.30
78649;DHT22;67962;47.310;9.642;2023-12-20T13:03:56;9.30;77.20
78649;DHT22;67962;47.310;9.642;2023-12-20T13:06:28;9.30;76.90
78649;DHT22;67962;47.310;9.642;2023-12-20T13:08:54;9.20;77.40
78649;DHT22;67962;47.310;9.642;2023-12-20T13:11:20;9.10;77.30
78649;DHT22;67962;47.310;9.642;2023-12-20T13:13:46;9.10;74.90
78649;DHT22;67962;47.310;9.642;2023-12-20T13:16:12;9.10;75.70
78649;DHT22;67962;47.310;9.642;2023-12-20T13:18:38;9.10;76.60
78649;DHT22;67962;47.310;9.642;2023-12-20T13:21:08;9.20;76.80
78649;DHT22;67962;47.310;9.642;2023-12-20T13:23:33;9.10;76.30
78649;DHT22;67962;47.310;9.642;2023-12-20T13:25:59;9.20;76.70
78649;DHT22;67962;47.310;9.642;2023-12-20T13:28:25;9.30;77.10
78649;DHT22;67962;47.310;9.642;2023-12-20T13:30:50;9.30;77.30
78649;DHT22;67962;47.310;9.642;2023-12-20T13:33:16;9.30;76.50
78649;DHT22;67962;47.310;9.642;2023-12-20T13:35:42;9.30;75.90
78649;DHT22;67962;47.310;9.642;2023-12-20T13:38:07;9.40;76.10
78649;DHT22;67962;47.310;9.642;2023-12-20T13:40:33;9.40;76.50
78649;DHT22;67962;47.310;9.642;2023-12-20T13:42:59;9.30;76.40
78649;DHT22;67962;47.310;9.642;2023-12-20T13:45:24;9.30;75.60
78649;DHT22;67962;47.310;9.642;2023-12-20T13:47:51;9.20;75.00
78649;DHT22;67962;47.310;9.642;2023-12-20T13:50:16;9.10;74.20
78649;DHT22;67962;47.310;9.642;2023-12-20T13:52:42;9.10;75.20
78649;DHT22;67962;47.310;9.642;2023-12-20T13:55:08;9.00;74.60
78649;DHT22;67962;47.310;9.642;2023-12-20T13:57:35;8.90;75.40
78649;DHT22;67962;47.310;9.642;2023-12-20T14:00:04;8.80;76.10
78649;DHT22;67962;47.310;9.642;2023-12-20T14:02:30;8.80;76.10
78649;DHT22;67962;47.310;9.642;2023-12-20T14:04:56;8.90;76.00
78649;DHT22;67962;47.310;9.642;2023-12-20T14:07:21;8.90;76.30
78649;DHT22;67962;47.310;9.642;2023-12-20T14:09:47;8.80;75.60
78649;DHT22;67962;47.310;9.642;2023-12-20T14:12:14;8.80;75.30
78649;DHT22;67962;47.310;9.642;2023-12-20T14:14:39;8.80;73.60
78649;DHT22;67962;47.310;9.642;2023-12-20T14:17:05;8.70;74.00
78649;DHT22;67962;47.310;9.642;2023-12-20T14:19:34;8.50;75.00
78649;DHT22;67962;47.310;9.642;2023-12-20T14:22:00;8.50;76.10
78649;DHT22;67962;47.310;9.642;2023-12-20T14:24:27;8.50;75.10
78649;DHT22;67962;47.310;9.642;2023-12-20T14:26:53;8.40;76.40
78649;DHT22;67962;47.310;9.642;2023-12-20T14:29:19;8.40;77.40
78649;DHT22;67962;47.310;9.642;2023-12-20T14:31:45;8.30;76.90
78649;DHT22;67962;47.310;9.642;2023-12-20T14:34:11;8.30;75.90
78649;DHT22;67962;47.310;9.642;2023-12-20T14:36:37;8.30;77.40
78649;DHT22;67962;47.310;9.642;2023-12-20T14:39:03;8.30;73.60
78649;DHT22;67962;47.310;9.642;2023-12-20T14:41:32;8.20;74.20
78649;DHT22;67962;47.310;9.642;2023-12-20T14:43:58;8.00;75.60
78649;DHT22;67962;47.310;9.642;2023-12-20T14:46:25;8.00;73.10
78649;DHT22;67962;47.310;9.642;2023-12-20T14:48:51;8.10;72.20
78649;DHT22;67962;47.310;9.642;2023-12-20T14:51:16;8.00;72.90
78649;DHT22;67962;47.310;9.642;2023-12-20T14:53:42;8.00;73.40
78649;DHT22;67962;47.310;9.642;2023-12-20T14:56:08;8.00;68.70
78649;DHT22;67962;47.310;9.642;2023-12-20T14:58:33;8.00;66.30
78649;DHT22;67962;47.310;9.642;2023-12-20T15:00:59;7.90;67.20
78649;DHT22;67962;47.310;9.642;2023-12-20T15:03:25;7.90;68.70
78649;DHT22;67962;47.310;9.642;2023-12-20T15:05:51;8.00;64.60
78649;DHT22;67962;47.310;9.642;2023-12-20T15:08:16;8.30;65.30
78649;DHT22;67962;47.310;9.642;2023-12-20T15:10:42;8.40;62.60
78649;DHT22;67962;47.310;9.642;2023-12-20T15:13:08;8.10;62.30
78649;DHT22;67962;47.310;9.642;2023-12-20T15:15:34;7.90;63.20
78649;DHT22;67962;47.310;9.642;2023-12-20T15:18:00;7.90;63.40
78649;DHT22;67962;47.310;9.642;2023-12-20T15:20:29;7.90;64.20
78649;DHT22;67962;47.310;9.642;2023-12-20T15:22:55;7.90;62.10
78649;DHT22;67962;47.310;9.642;2023-12-20T15:25:24;7.80;62.20
78649;DHT22;67962;47.310;9.642;2023-12-20T15:27:49;8.00;65.10
78649;DHT22;67962;47.310;9.642;2023-12-20T15:30:19;8.10;63.60
78649;DHT22;67962;47.310;9.642;2023-12-20T15:32:45;8.00;61.40
78649;DHT22;67962;47.310;9.642;2023-12-20T15:35:11;8.00;61.50
78649;DHT22;67962;47.310;9.642;2023-12-20T15:37:38;8.00;61.10
78649;DHT22;67962;47.310;9.642;2023-12-20T15:40:06;7.80;61.00
78649;DHT22;67962;47.310;9.642;2023-12-20T15:42:32;7.70;63.20